地図

経路データ

SID SEASON NUMBER BASIN SUBBASIN NAME ISO_TIME NATURE LAT LON WMO_WIND WMO_PRES WMO_AGENCY TRACK_TYPE DIST2LAND LANDFALL IFLAG USA_AGENCY USA_ATCF_ID USA_LAT USA_LON USA_RECORD USA_STATUS USA_WIND USA_PRES USA_SSHS USA_R34_NE USA_R34_SE USA_R34_SW USA_R34_NW USA_R50_NE USA_R50_SE USA_R50_SW USA_R50_NW USA_R64_NE USA_R64_SE USA_R64_SW USA_R64_NW USA_POCI USA_ROCI USA_RMW USA_EYE TOKYO_LAT TOKYO_LON TOKYO_GRADE TOKYO_WIND TOKYO_PRES TOKYO_R50_DIR TOKYO_R50_LONG TOKYO_R50_SHORT TOKYO_R30_DIR TOKYO_R30_LONG TOKYO_R30_SHORT TOKYO_LAND CMA_LAT CMA_LON CMA_CAT CMA_WIND CMA_PRES HKO_LAT HKO_LON HKO_CAT HKO_WIND HKO_PRES NEWDELHI_LAT NEWDELHI_LON NEWDELHI_GRADE NEWDELHI_WIND NEWDELHI_PRES NEWDELHI_CI NEWDELHI_DP NEWDELHI_POCI REUNION_LAT REUNION_LON REUNION_TYPE REUNION_WIND REUNION_PRES REUNION_TNUM REUNION_CI REUNION_RMW REUNION_R34_NE REUNION_R34_SE REUNION_R34_SW REUNION_R34_NW REUNION_R50_NE REUNION_R50_SE REUNION_R50_SW REUNION_R50_NW REUNION_R64_NE REUNION_R64_SE REUNION_R64_SW REUNION_R64_NW BOM_LAT BOM_LON BOM_TYPE BOM_WIND BOM_PRES BOM_TNUM BOM_CI BOM_RMW BOM_R34_NE BOM_R34_SE BOM_R34_SW BOM_R34_NW BOM_R50_NE BOM_R50_SE BOM_R50_SW BOM_R50_NW BOM_R64_NE BOM_R64_SE BOM_R64_SW BOM_R64_NW BOM_ROCI BOM_POCI BOM_EYE BOM_POS_METHOD BOM_PRES_METHOD NADI_LAT NADI_LON NADI_CAT NADI_WIND NADI_PRES WELLINGTON_LAT WELLINGTON_LON WELLINGTON_WIND WELLINGTON_PRES DS824_LAT DS824_LON DS824_STAGE DS824_WIND DS824_PRES TD9636_LAT TD9636_LON TD9636_STAGE TD9636_WIND TD9636_PRES TD9635_LAT TD9635_LON TD9635_WIND TD9635_PRES TD9635_ROCI NEUMANN_LAT NEUMANN_LON NEUMANN_CLASS NEUMANN_WIND NEUMANN_PRES MLC_LAT MLC_LON MLC_CLASS MLC_WIND MLC_PRES USA_GUST BOM_GUST BOM_GUST_PER REUNION_GUST REUNION_GUST_PER USA_SEAHGT USA_SEARAD_NE USA_SEARAD_SE USA_SEARAD_SW USA_SEARAD_NW STORM_SPEED STORM_DIR
1927208N20089 1927 34 NI BB NOT_NAMED 1927-07-27 00:00:00 TS 20.1000 89.1000 main 167 167 _________O____ -1 20.1000 89.1000 TC 34 0 0
1927208N20089 1927 34 NI BB NOT_NAMED 1927-07-27 03:00:00 TS 20.1000 89.1000 main 167 167 _________PO___ -1 20.1000 89.1000 TC 36 20.1000 89.1000 2 0 0
1927208N20089 1927 34 NI BB NOT_NAMED 1927-07-27 06:00:00 TS 20.1088 89.0975 main 167 167 _________OP___ -1 20.1000 89.1000 TC 39 20.1219 89.0938 2 0 0
1927208N20089 1927 34 NI BB NOT_NAMED 1927-07-27 09:00:00 TS 20.1150 89.0958 main 167 167 _________PP___ -1 20.1000 89.1000 TC 42 20.1350 89.0901 2 0 0
1927208N20089 1927 34 NI BB NOT_NAMED 1927-07-27 12:00:00 TS 20.1153 89.0957 main 167 167 _________OP___ -1 20.1000 89.1000 TC 45 20.1306 89.0913 2 0 0
1927208N20089 1927 34 NI BB NOT_NAMED 1927-07-27 15:00:00 TS 20.1000 89.1000 main 167 167 _________PO___ -1 20.1000 89.1000 TC 45 20.1000 89.1000 3 0 0
1927208N20089 1927 34 NI BB NOT_NAMED 1927-07-27 18:00:00 TS 20.0716 89.1080 main 167 167 _________OP___ -1 20.1000 89.1000 TC 45 20.0431 89.1161 3 1 0
1927208N20089 1927 34 NI BB NOT_NAMED 1927-07-27 21:00:00 TS 20.0287 89.1223 main 178 178 _________PP___ -1 20.0625 89.1149 TC 45 19.9950 89.1297 3 0 0
1927208N20089 1927 34 NI BB NOT_NAMED 1927-07-28 00:00:00 TS 20.0497 89.1142 main 178 156 _________OP___ -1 20.1000 89.1000 TC 45 19.9993 89.1285 3 2 340
1927208N20089 1927 34 NI BB NOT_NAMED 1927-07-28 03:00:00 TS 20.1913 89.0575 main 156 123 _________PO___ -1 20.2825 89.0150 TC 45 20.1000 89.1000 3 5 344
1927208N20089 1927 34 NI BB NOT_NAMED 1927-07-28 06:00:00 TS 20.4827 88.9785 main 123 78 _________OP___ -1 20.6000 88.9000 TC 45 20.3655 89.0571 3 7 348
1927208N20089 1927 34 NI BB NOT_NAMED 1927-07-28 09:00:00 TS 20.8836 88.8986 main 78 35 _________PP___ -1 21.0425 88.8149 TC 45 20.7248 88.9823 3 9 348
1927208N20089 1927 34 NI BB NOT_NAMED 1927-07-28 12:00:00 TS 21.3108 88.7832 main 35 10 _________OP___ -1 21.5000 88.7000 TC 45 21.1217 88.8664 3 8 342
1927208N20089 1927 34 NI BB NOT_NAMED 1927-07-28 15:00:00 TS 21.6687 88.6187 main 10 0 _________PO___ -1 21.8374 88.5374 TC 45 21.5000 88.7000 3 7 330
1927208N20089 1927 34 NI BB NOT_NAMED 1927-07-28 18:00:00 TS 21.9577 88.3879 main 0 0 _________OP___ -1 22.1000 88.3000 TC 45 21.8155 88.4759 3 7 318
1927208N20089 1927 34 NI BB NOT_NAMED 1927-07-28 21:00:00 TS 22.2214 88.0842 main 0 0 _________PP___ -1 22.3451 87.9652 TC 45 22.0977 88.2033 3 7 308
1927208N20089 1927 34 NI BB NOT_NAMED 1927-07-29 00:00:00 TS 22.4155 87.7520 main 0 0 _________OP___ -1 22.5000 87.6000 TC 45 22.3311 87.9040 3 7 296
1927208N20089 1927 34 NI BB NOT_NAMED 1927-07-29 03:00:00 TS 22.5112 87.4424 main 0 0 _________PO___ -1 22.5224 87.2847 TC 45 22.5000 87.6000 3 6 283
1927208N20089 1927 34 NI BB NOT_NAMED 1927-07-29 06:00:00 TS 22.5387 87.1580 main 0 0 _________OP___ -1 22.5000 87.0000 TC 45 22.5774 87.3161 3 5 276
1927208N20089 1927 34 NI BB NOT_NAMED 1927-07-29 09:00:00 TS 22.5649 86.8882 main 0 0 _________PP___ -1 22.5349 86.7425 TC 45 22.5949 87.0340 3 5 277
1927208N20089 1927 34 NI BB NOT_NAMED 1927-07-29 12:00:00 TS 22.5950 86.6300 main 0 0 _________OP___ -1 22.6000 86.5000 TC 45 22.5900 86.7599 3 5 280
1927208N20089 1927 34 NI BB NOT_NAMED 1927-07-29 15:00:00 TS 22.6462 86.3713 main 0 0 _________PO___ -1 22.6925 86.2425 TC 41 22.6000 86.5000 3 5 285
1927208N20089 1927 34 NI BB NOT_NAMED 1927-07-29 18:00:00 TS 22.7166 86.1475 main 0 0 _________OP___ -1 22.8000 86.0000 TC 37 22.6541 86.2581 3 4 292
1927208N20089 1927 34 NI BB NOT_NAMED 1927-07-29 21:00:00 TS 22.8096 85.9345 main 0 0 _________PP___ -1 22.9025 85.7900 TC 33 22.7476 86.0309 3 4 298
1927208N20089 1927 34 NI BB NOT_NAMED 1927-07-30 00:00:00 TS 22.9116 85.7421 main 0 0 _________OP___ -1 23.0000 85.6000 TC 30 22.8673 85.8132 3 4 302
1927208N20089 1927 34 NI BB NOT_NAMED 1927-07-30 03:00:00 NR 23.0000 85.6000 main 0 __________O___ -1 TC 23.0000 85.6000 1 3 304

IBTrACS Databaseについて

本データベースは、米国NOAAが公開する1842年以降の世界の熱帯低気圧のベストトラックデータアーカイブInternational Best Track Archive for Climate Stewardship (IBTrACS)を、ウェブで閲覧しやすい形式に変換したものです。

最終更新日:2021-11-26